Time;durP1;ratioP1;P1;durP2;ratioP2;P2;SDS_P1;SDS_P2;PMS_P1;PMS_P2;Temp;Humidity;BMP_temperature;BMP_pressure;BME280_temperature;BME280_humidity;BME280_pressure;Samples;Min_cycle;Max_cycle;Signal;HPM_P1;HPM_P2
2021/04/09 00:01:41;;;;;;;3.03;1.20;;;;;;;5.14;44.35;98709.25;5060194;28;45237;-83
2021/04/09 00:04:06;;;;;;;4.88;1.63;;;;;;;5.10;45.54;98717.38;5071834;28;47417;-83
2021/04/09 00:06:32;;;;;;;3.63;1.55;;;;;;;4.98;46.26;98710.34;5077372;28;45480;-82
2021/04/09 00:08:57;;;;;;;4.53;1.60;;;;;;;5.01;46.83;98718.03;5060744;27;45515;-82
2021/04/09 00:11:23;;;;;;;2.55;1.60;;;;;;;4.93;48.71;98713.34;5059397;28;45554;-82
2021/04/09 00:13:48;;;;;;;4.15;2.10;;;;;;;4.66;46.96;98721.38;5057947;28;46833;-82
2021/04/09 00:16:14;;;;;;;2.63;1.42;;;;;;;4.62;47.66;98706.75;5067102;28;45318;-82
2021/04/09 00:18:39;;;;;;;3.05;1.42;;;;;;;4.63;46.77;98711.06;5059574;28;45427;-82
2021/04/09 00:21:05;;;;;;;2.92;1.40;;;;;;;4.84;46.58;98715.78;5067252;28;45540;-82
2021/04/09 00:23:30;;;;;;;2.35;1.30;;;;;;;4.58;49.24;98714.00;5072301;28;46436;-82
2021/04/09 00:25:56;;;;;;;4.03;1.80;;;;;;;4.46;49.62;98717.50;5070325;28;45465;-83
2021/04/09 00:28:21;;;;;;;3.40;1.33;;;;;;;4.45;47.88;98715.81;5094826;27;45427;-83
2021/04/09 00:30:47;;;;;;;3.88;1.60;;;;;;;4.52;46.29;98706.53;5067393;28;45282;-82
2021/04/09 00:33:12;;;;;;;3.00;1.30;;;;;;;4.44;48.59;98714.13;5071416;28;48165;-82
2021/04/09 00:35:38;;;;;;;4.07;1.60;;;;;;;4.65;46.96;98712.63;5071734;28;45314;-82
2021/04/09 00:38:04;;;;;;;2.88;1.50;;;;;;;4.60;48.64;98709.47;5058929;28;45195;-84
2021/04/09 00:40:29;;;;;;;3.33;1.60;;;;;;;4.45;49.37;98714.03;5059499;28;45229;-84
2021/04/09 00:42:55;;;;;;;4.72;1.65;;;;;;;4.45;50.36;98710.53;5070760;28;48434;-83
2021/04/09 00:45:20;;;;;;;3.65;1.70;;;;;;;4.39;50.13;98709.16;5070668;28;45486;-83
2021/04/09 00:47:46;;;;;;;3.35;1.50;;;;;;;4.63;49.10;98709.25;5065006;27;45260;-83
2021/04/09 00:50:14;;;;;;;3.58;1.20;;;;;;;4.81;47.01;98707.13;5068878;27;45274;-83
2021/04/09 00:52:41;;;;;;;3.38;1.70;;;;;;;4.66;49.14;98716.13;5072162;27;45961;-83
2021/04/09 00:55:08;;;;;;;3.47;1.60;;;;;;;4.75;49.04;98707.56;5068148;27;45288;-83
2021/04/09 00:57:35;;;;;;;3.08;1.75;;;;;;;4.36;51.55;98707.59;5058684;28;45314;-83
2021/04/09 01:00:08;;;;;;;4.10;1.60;;;;;;;4.57;48.72;98706.22;5057561;28;45371;-83
2021/04/09 01:02:34;;;;;;;4.05;1.80;;;;;;;4.26;51.86;98705.69;5057265;28;47063;-83
2021/04/09 01:04:59;;;;;;;11.77;4.43;;;;;;;4.11;51.43;98699.69;5059116;28;45427;-83
2021/04/09 01:07:26;;;;;;;4.35;2.33;;;;;;;4.06;51.96;98698.22;5058645;28;45325;-83
2021/04/09 01:09:54;;;;;;;5.00;1.60;;;;;;;4.06;48.48;98695.56;5058810;28;45344;-82
2021/04/09 01:12:19;;;;;;;2.63;1.50;;;;;;;4.15;51.75;98698.53;5073705;27;47013;-81
2021/04/09 01:14:45;;;;;;;3.75;2.00;;;;;;;4.33;51.40;98699.91;5058516;28;45334;-82
2021/04/09 01:17:24;;;;;;;3.03;1.88;;;;;;;4.28;49.27;98706.41;5058929;28;45187;-83
2021/04/09 01:20:27;;;;;;;3.45;1.60;;;;;;;4.14;49.89;98702.94;5070361;28;45511;-83
2021/04/09 01:23:11;;;;;;;3.65;2.10;;;;;;;4.13;51.21;98701.25;5058141;28;45493;-83
2021/04/09 01:26:07;;;;;;;4.53;1.98;;;;;;;4.18;50.32;98696.50;5063224;28;45401;-83
2021/04/09 01:28:50;;;;;;;4.40;1.80;;;;;;;4.28;51.08;98702.00;5058383;28;45442;-82
2021/04/09 01:31:22;;;;;;;4.65;1.98;;;;;;;4.19;50.61;98707.91;5058292;28;45422;-82
2021/04/09 01:33:54;;;;;;;3.75;2.10;;;;;;;4.21;49.15;98706.84;5057624;28;45275;-82
2021/04/09 01:36:24;;;;;;;3.30;1.92;;;;;;;4.27;47.71;98710.00;5058074;28;45420;-82
2021/04/09 01:39:00;;;;;;;5.90;2.08;;;;;;;4.26;48.37;98706.53;5058472;28;45245;-82
2021/04/09 01:41:27;;;;;;;4.55;2.45;;;;;;;4.20;49.16;98706.94;5061351;28;45517;-82
2021/04/09 01:43:55;;;;;;;4.05;2.20;;;;;;;4.15;48.25;98707.25;5057742;28;45369;-83
2021/04/09 01:46:22;;;;;;;3.90;1.73;;;;;;;4.17;48.73;98712.44;5060077;28;45381;-83
2021/04/09 01:48:49;;;;;;;5.80;2.10;;;;;;;4.16;50.32;98710.75;5069690;28;45348;-83
2021/04/09 01:51:16;;;;;;;5.00;1.98;;;;;;;4.31;49.53;98714.97;5073798;27;45534;-83
2021/04/09 01:53:47;;;;;;;5.72;2.33;;;;;;;4.06;52.18;98703.47;5072543;27;48056;-83
2021/04/09 01:56:15;;;;;;;5.95;2.20;;;;;;;3.94;52.80;98706.91;5064924;28;45608;-82
2021/04/09 01:58:41;;;;;;;5.22;2.20;;;;;;;4.01;50.94;98699.44;5074488;28;45244;-83
2021/04/09 02:01:09;;;;;;;4.75;2.50;;;;;;;4.01;51.58;98699.44;5070340;28;45379;-82
2021/04/09 02:03:35;;;;;;;5.43;2.10;;;;;;;4.06;51.22;98700.84;5069912;28;47299;-83
2021/04/09 02:06:02;;;;;;;6.32;2.80;;;;;;;4.11;52.85;98697.88;5061344;28;45350;-83
2021/04/09 02:08:30;;;;;;;9.27;4.15;;;;;;;4.13;52.55;98703.88;5056589;28;45275;-83
2021/04/09 02:10:57;;;;;;;24.13;3.00;;;;;;;3.92;53.39;98698.25;5057833;28;45294;-82
2021/04/09 02:13:24;;;;;;;15.38;3.10;;;;;;;3.97;52.84;98706.69;5057071;28;45944;-81
2021/04/09 02:15:53;;;;;;;5.75;2.60;;;;;;;3.83;52.83;98706.78;5057930;28;45508;-82
2021/04/09 02:18:20;;;;;;;4.00;2.40;;;;;;;3.86;53.32;98701.31;5057734;28;45571;-82
2021/04/09 02:20:45;;;;;;;3.75;1.88;;;;;;;4.06;51.52;98710.50;5058189;28;45535;-82
2021/04/09 02:23:12;;;;;;;4.53;2.35;;;;;;;4.00;51.28;98701.25;5074557;27;46224;-82
2021/04/09 02:25:37;;;;;;;7.55;2.92;;;;;;;4.07;50.60;98694.63;5057676;28;45246;-82
2021/04/09 02:28:03;;;;;;;4.70;2.13;;;;;;;4.05;51.29;98691.25;5057356;28;45214;-82
2021/04/09 02:30:28;;;;;;;3.75;2.20;;;;;;;3.84;52.57;98695.31;5057685;28;45194;-82
2021/04/09 02:32:54;;;;;;;4.80;2.40;;;;;;;4.19;50.81;98700.00;5056092;28;46074;-82
2021/04/09 02:35:20;;;;;;;5.68;2.50;;;;;;;4.16;51.94;98703.66;5063403;28;46013;-82
2021/04/09 02:37:48;;;;;;;4.07;2.28;;;;;;;4.03;52.30;98687.88;5086845;27;45364;-82
2021/04/09 02:40:20;;;;;;;6.45;2.25;;;;;;;3.77;53.93;98690.47;5058462;28;45343;-82
2021/04/09 02:42:49;;;;;;;5.43;2.42;;;;;;;3.97;54.04;98692.72;5055621;28;48380;-82
2021/04/09 02:45:16;;;;;;;5.63;2.13;;;;;;;4.23;52.20;98690.94;5057825;28;45287;-82
2021/04/09 02:47:44;;;;;;;3.97;2.22;;;;;;;4.30;52.14;98700.09;5063920;28;45256;-82
2021/04/09 02:50:30;;;;;;;5.80;2.20;;;;;;;4.13;56.63;98690.72;5071307;27;45246;-82
2021/04/09 02:53:11;;;;;;;6.95;2.58;;;;;;;3.75;54.73;98697.59;5076431;27;46193;-81
2021/04/09 02:55:39;;;;;;;;;;;;;;;3.79;55.30;98695.63;5066272;27;45280;-82
2021/04/09 02:58:06;;;;;;;5.35;2.50;;;;;;;3.70;53.82;98693.63;5060790;28;45370;-82
2021/04/09 03:00:36;;;;;;;8.05;2.58;;;;;;;3.69;55.74;98700.66;5061015;28;45386;-81
2021/04/09 03:03:05;;;;;;;4.53;2.35;;;;;;;3.55;57.11;98695.44;5061632;28;45334;-81
2021/04/09 03:05:31;;;;;;;4.03;2.20;;;;;;;3.88;52.78;98692.38;5060596;28;45406;-81
2021/04/09 03:07:59;;;;;;;6.30;2.80;;;;;;;4.15;52.11;98694.09;5060918;28;45429;-81
2021/04/09 03:10:25;;;;;;;4.40;2.13;;;;;;;3.83;54.64;98691.00;5060688;28;45405;-81
2021/04/09 03:12:50;;;;;;;5.90;3.05;;;;;;;3.83;53.84;98693.63;5059979;28;45274;-81
2021/04/09 03:15:22;;;;;;;4.80;2.38;;;;;;;3.89;53.65;98682.69;5060434;28;45289;-81
2021/04/09 03:18:10;;;;;;;5.53;2.35;;;;;;;3.88;52.87;98683.63;5060821;28;45313;-81
2021/04/09 03:20:36;;;;;;;5.88;3.00;;;;;;;4.23;51.92;98688.31;5060457;28;45158;-81
2021/04/09 03:23:02;;;;;;;4.78;2.65;;;;;;;4.05;54.09;98693.03;5076021;28;47435;-81
2021/04/09 03:25:28;;;;;;;6.30;2.75;;;;;;;3.60;55.81;98685.47;5059023;28;45714;-81
2021/04/09 03:27:53;;;;;;;5.93;2.50;;;;;;;3.75;55.84;98692.34;5060019;28;45247;-81
2021/04/09 03:30:21;;;;;;;5.38;2.63;;;;;;;3.86;55.42;98688.16;5060490;28;45401;-82
2021/04/09 03:32:47;;;;;;;5.75;2.60;;;;;;;3.72;57.36;98689.91;5060062;28;46541;-82
2021/04/09 03:35:13;;;;;;;4.13;2.28;;;;;;;3.88;55.23;98684.50;5060436;28;45316;-82
2021/04/09 03:37:39;;;;;;;5.18;2.58;;;;;;;3.86;58.46;98691.63;5060310;28;45376;-82
2021/04/09 03:40:05;;;;;;;4.47;2.20;;;;;;;3.89;56.94;98682.69;5060515;28;45328;-82
2021/04/09 03:42:31;;;;;;;5.25;2.50;;;;;;;3.74;55.12;98687.19;5060694;28;45273;-82
2021/04/09 03:44:56;;;;;;;3.95;2.22;;;;;;;3.90;57.82;98687.00;5060023;28;45432;-82
2021/04/09 03:47:22;;;;;;;4.65;2.33;;;;;;;3.93;56.07;98689.41;5073424;28;45302;-82
2021/04/09 03:49:47;;;;;;;6.18;2.53;;;;;;;3.42;56.84;98690.13;5058927;28;45728;-82
2021/04/09 03:52:13;;;;;;;4.63;2.50;;;;;;;3.72;55.32;98689.91;5075750;27;47459;-82
2021/04/09 03:54:38;;;;;;;3.88;2.25;;;;;;;3.95;54.51;98695.44;5072197;27;45247;-82
2021/04/09 03:57:04;;;;;;;5.13;2.50;;;;;;;3.91;56.47;98694.81;5058945;28;45329;-82
2021/04/09 03:59:29;;;;;;;4.43;2.15;;;;;;;3.76;56.02;98694.03;5060150;28;45240;-83
2021/04/09 04:01:55;;;;;;;5.03;2.47;;;;;;;3.68;57.70;98691.06;5063065;28;45880;-82
2021/04/09 04:04:20;;;;;;;4.53;2.35;;;;;;;3.80;56.64;98687.63;5075471;28;45749;-82
2021/04/09 04:06:46;;;;;;;4.50;2.30;;;;;;;3.89;55.79;98685.31;5073345;28;45294;-82
2021/04/09 04:09:11;;;;;;;4.93;2.35;;;;;;;3.90;56.77;98681.72;5059967;28;45293;-82
2021/04/09 04:11:37;;;;;;;6.55;2.92;;;;;;;3.76;55.85;98680.88;5059112;28;45447;-82
2021/04/09 04:14:02;;;;;;;5.85;2.38;;;;;;;3.63;55.80;98672.13;5062608;28;45727;-82
2021/04/09 04:16:28;;;;;;;5.43;2.65;;;;;;;3.59;56.06;98668.00;5073278;28;45304;-82
2021/04/09 04:18:53;;;;;;;6.57;2.35;;;;;;;3.98;54.98;98674.19;5058415;28;45360;-82
2021/04/09 04:21:19;;;;;;;6.75;2.65;;;;;;;3.86;57.13;98664.47;5058269;28;47330;-82
2021/04/09 04:23:45;;;;;;;5.60;2.63;;;;;;;3.65;57.10;98667.59;5075084;28;45546;-82
2021/04/09 04:26:11;;;;;;;5.25;2.20;;;;;;;3.58;57.96;98659.28;5060167;28;45217;-82
2021/04/09 04:28:36;;;;;;;6.82;2.50;;;;;;;3.68;56.63;98650.78;5072189;28;45519;-82
2021/04/09 04:31:03;;;;;;;5.47;2.33;;;;;;;3.77;57.59;98650.16;5075624;28;46471;-82
2021/04/09 04:33:28;;;;;;;6.43;2.58;;;;;;;3.80;57.02;98650.78;5059472;28;45240;-82
2021/04/09 04:35:54;;;;;;;6.55;2.55;;;;;;;3.89;56.94;98648.47;5059459;28;45225;-82
2021/04/09 04:38:20;;;;;;;4.82;2.40;;;;;;;3.63;58.03;98656.34;5062519;28;45296;-82
2021/04/09 04:40:47;;;;;;;5.78;3.00;;;;;;;3.48;56.66;98651.16;5072708;28;45408;-82
2021/04/09 04:43:12;;;;;;;5.50;2.70;;;;;;;3.47;58.01;98646.84;5059846;28;45479;-82
2021/04/09 04:45:38;;;;;;;6.38;3.25;;;;;;;3.85;55.70;98652.25;5069735;28;45555;-82
2021/04/09 04:48:06;;;;;;;6.57;2.88;;;;;;;3.92;56.22;98654.38;5065189;28;45343;-82
2021/04/09 04:50:31;;;;;;;7.53;2.88;;;;;;;3.44;58.17;98647.03;5066118;27;47582;-81
2021/04/09 04:52:57;;;;;;;5.82;3.03;;;;;;;3.62;57.77;98659.91;5074757;27;45219;-81
2021/04/09 04:55:23;;;;;;;6.05;2.92;;;;;;;3.48;57.50;98650.28;5074617;28;45317;-81
2021/04/09 04:57:48;;;;;;;5.68;2.88;;;;;;;3.41;58.98;98651.63;5058592;28;45558;-82
2021/04/09 05:00:14;;;;;;;8.18;2.72;;;;;;;3.72;57.26;98650.47;5058989;28;46065;-82
2021/04/09 05:02:40;;;;;;;8.32;2.70;;;;;;;3.52;58.48;98643.88;5060353;28;45472;-82
2021/04/09 05:05:06;;;;;;;6.80;2.63;;;;;;;3.63;58.30;98645.81;5057057;28;45389;-81
2021/04/09 05:07:31;;;;;;;4.32;2.42;;;;;;;3.45;59.32;98653.97;5061917;28;45561;-81
2021/04/09 05:09:57;;;;;;;5.47;2.55;;;;;;;3.58;57.34;98648.75;5073774;28;46984;-82
2021/04/09 05:12:23;;;;;;;6.30;2.55;;;;;;;3.76;58.45;98656.38;5076194;28;45384;-83
2021/04/09 05:14:51;;;;;;;7.07;2.95;;;;;;;3.70;57.68;98654.16;5065355;27;45648;-83
2021/04/09 05:17:17;;;;;;;5.32;2.80;;;;;;;3.88;57.58;98657.31;5082187;27;45360;-83
2021/04/09 05:19:42;;;;;;;5.20;2.85;;;;;;;3.99;58.47;98660.09;5058977;28;45378;-83
2021/04/09 05:22:07;;;;;;;5.57;2.63;;;;;;;3.60;58.63;98656.53;5063308;28;45455;-82
2021/04/09 05:24:33;;;;;;;9.45;2.85;;;;;;;3.61;57.50;98660.84;5071477;28;45432;-82
2021/04/09 05:26:58;;;;;;;5.43;2.63;;;;;;;3.93;57.44;98668.38;5069197;28;45616;-82
2021/04/09 05:29:24;;;;;;;6.22;2.58;;;;;;;4.06;58.14;98663.13;5067316;28;46624;-82
2021/04/09 05:31:49;;;;;;;6.88;3.55;;;;;;;3.84;59.15;98671.63;5057963;28;45420;-83
2021/04/09 05:34:14;;;;;;;7.47;2.95;;;;;;;3.61;59.14;98658.22;5071882;27;45392;-82
2021/04/09 05:36:40;;;;;;;6.65;3.03;;;;;;;3.82;60.16;98663.84;5073444;27;45684;-83
2021/04/09 05:39:05;;;;;;;6.93;2.90;;;;;;;3.75;60.28;98660.78;5058325;28;46468;-82
2021/04/09 05:41:31;;;;;;;5.53;2.58;;;;;;;3.68;59.68;98663.94;5057646;28;45328;-82
2021/04/09 05:43:56;;;;;;;6.60;2.50;;;;;;;3.92;57.89;98671.94;5069888;28;45353;-83
2021/04/09 05:46:21;;;;;;;5.72;2.80;;;;;;;3.90;59.81;98676.47;5061017;27;45324;-83
2021/04/09 05:48:47;;;;;;;5.75;2.63;;;;;;;4.35;56.05;98665.53;5069760;28;47320;-83
2021/04/09 05:51:12;;;;;;;5.72;2.55;;;;;;;4.24;54.61;98666.31;5069515;27;46699;-82
2021/04/09 05:53:39;;;;;;;6.88;2.65;;;;;;;4.35;55.76;98668.19;5074008;27;45394;-82
2021/04/09 05:56:05;;;;;;;5.35;2.70;;;;;;;4.23;58.67;98669.88;5057276;28;45551;-82
2021/04/09 05:58:31;;;;;;;12.15;5.05;;;;;;;4.23;58.96;98662.81;5057395;28;45987;-83
2021/04/09 06:00:56;;;;;;;11.27;4.70;;;;;;;3.80;59.23;98669.19;5057564;28;45217;-83
2021/04/09 06:03:22;;;;;;;6.80;3.15;;;;;;;3.93;60.79;98666.59;5057752;28;45221;-80
2021/04/09 06:05:47;;;;;;;15.57;4.97;;;;;;;3.98;59.52;98674.19;5057509;28;45562;-82
2021/04/09 06:08:12;;;;;;;11.63;4.90;;;;;;;3.44;61.79;98669.84;5058126;28;45458;-82
2021/04/09 06:10:38;;;;;;;14.45;5.88;;;;;;;3.74;60.27;98679.31;5057499;28;45369;-78
2021/04/09 06:13:04;;;;;;;9.00;4.55;;;;;;;3.87;60.76;98664.38;5070820;28;45671;-82
2021/04/09 06:15:30;;;;;;;12.55;6.57;;;;;;;4.26;60.62;98674.06;5071301;27;45535;-83
2021/04/09 06:17:56;;;;;;;11.75;5.70;;;;;;;4.25;59.33;98678.53;5063768;28;46086;-80
2021/04/09 06:20:21;;;;;;;14.32;6.47;;;;;;;4.46;58.62;98676.19;5057598;28;45361;-82
2021/04/09 06:22:47;;;;;;;16.67;7.68;;;;;;;4.14;56.16;98675.78;5058108;28;45342;-82
2021/04/09 06:25:13;;;;;;;15.90;8.00;;;;;;;4.35;56.90;98681.34;5067343;28;45463;-78
2021/04/09 06:27:38;;;;;;;22.73;7.57;;;;;;;4.32;58.01;98692.94;5067668;27;45635;-80
2021/04/09 06:30:05;;;;;;;11.02;6.00;;;;;;;4.27;55.64;98678.41;5062036;28;45523;-81
2021/04/09 06:32:30;;;;;;;10.88;5.72;;;;;;;4.52;57.10;98690.72;5069376;27;45633;-80
2021/04/09 06:34:56;;;;;;;10.30;6.65;;;;;;;4.66;58.64;98687.13;5064930;28;45465;-79
2021/04/09 06:37:21;;;;;;;11.05;6.20;;;;;;;4.66;57.07;98677.41;5075954;27;47023;-80
2021/04/09 06:39:46;;;;;;;13.38;6.53;;;;;;;4.79;57.63;98695.00;5069696;28;45921;-80
2021/04/09 06:42:14;;;;;;;15.43;7.43;;;;;;;4.91;57.21;98699.44;5065195;27;45503;-81
2021/04/09 06:44:40;;;;;;;14.10;6.43;;;;;;;5.05;55.64;98705.50;5064831;28;45468;-81
2021/04/09 06:47:06;;;;;;;10.20;6.18;;;;;;;5.10;54.60;98696.28;5061539;28;46192;-82
2021/04/09 06:49:31;;;;;;;10.75;5.75;;;;;;;5.24;52.70;98697.09;5068249;28;45544;-82
2021/04/09 06:51:57;;;;;;;10.27;6.10;;;;;;;5.52;55.13;98689.81;5071899;27;45497;-79
2021/04/09 06:54:23;;;;;;;24.30;8.18;;;;;;;5.64;55.44;98693.34;5065427;27;45600;-80
2021/04/09 06:56:51;;;;;;;23.65;8.05;;;;;;;5.88;54.76;98695.13;5064929;28;46024;-82
2021/04/09 06:59:22;;;;;;;19.77;7.22;;;;;;;6.42;54.44;98689.25;5075177;27;45495;-80
2021/04/09 07:01:50;;;;;;;12.63;6.55;;;;;;;6.53;53.84;98695.50;5065803;28;45535;-80
2021/04/09 07:04:15;;;;;;;15.52;6.90;;;;;;;6.37;51.96;98691.41;5063942;27;45503;-80
2021/04/09 07:06:41;;;;;;;13.93;5.75;;;;;;;5.78;51.43;98677.34;5067274;28;45928;-87
2021/04/09 07:09:07;;;;;;;12.57;6.75;;;;;;;6.28;52.62;98686.84;5062469;27;45463;-83
2021/04/09 07:11:36;;;;;;;13.25;6.10;;;;;;;6.13;51.74;98687.06;5070685;28;45518;-83
2021/04/09 07:14:02;;;;;;;12.50;5.43;;;;;;;5.74;49.27;98673.22;5063897;28;45403;-88
2021/04/09 07:16:27;;;;;;;11.35;6.10;;;;;;;6.16;52.79;98685.13;5063723;27;45547;-82
2021/04/09 07:18:54;;;;;;;12.57;5.68;;;;;;;5.81;51.53;98660.41;5064332;28;45826;-81
2021/04/09 07:21:29;;;;;;;13.20;6.40;;;;;;;6.08;54.39;98685.69;5066471;27;45505;-82
2021/04/09 07:24:13;;;;;;;12.57;6.38;;;;;;;5.92;53.24;98672.81;5063572;28;46279;-80
2021/04/09 07:27:00;;;;;;;11.80;6.18;;;;;;;6.15;54.39;98688.72;5060167;27;45419;-81
2021/04/09 07:29:31;;;;;;;13.07;5.30;;;;;;;5.98;51.93;98670.53;5082469;27;45331;-81
2021/04/09 07:32:20;;;;;;;10.88;6.68;;;;;;;6.20;53.24;98678.66;5061875;28;45418;-82
2021/04/09 07:35:05;;;;;;;12.23;5.72;;;;;;;6.53;52.88;98679.63;5072330;27;45486;-80
2021/04/09 07:37:52;;;;;;;12.15;6.38;;;;;;;6.49;52.77;98679.06;5063990;27;46437;-80
2021/04/09 07:40:27;;;;;;;11.32;6.22;;;;;;;6.49;51.30;98681.69;5057838;28;45486;-80
2021/04/09 07:42:55;;;;;;;13.40;6.90;;;;;;;6.56;55.37;98669.69;5073130;28;45339;-82
2021/04/09 07:45:22;;;;;;;14.88;7.43;;;;;;;6.47;52.84;98672.19;5058058;28;45654;-82
2021/04/09 07:48:06;;;;;;;11.30;6.07;;;;;;;6.56;52.71;98671.47;5061155;27;45423;-81
2021/04/09 07:50:38;;;;;;;16.48;6.30;;;;;;;6.63;52.21;98671.84;5063025;28;45592;-79
2021/04/09 07:53:04;;;;;;;13.45;6.95;;;;;;;6.97;50.62;98675.31;5069328;27;45581;-82
2021/04/09 07:55:30;;;;;;;11.23;5.65;;;;;;;7.09;51.28;98675.28;5062995;28;45755;-82
2021/04/09 07:58:13;;;;;;;9.10;5.20;;;;;;;6.93;47.35;98665.09;5066981;28;46051;-82
2021/04/09 08:00:39;;;;;;;10.05;4.70;;;;;;;7.17;43.00;98672.84;5078544;28;45755;-80
2021/04/09 08:03:05;;;;;;;112.32;54.42;;;;;;;7.47;43.92;98676.59;5067619;27;45711;-80
2021/04/09 08:05:30;;;;;;;94.03;49.63;;;;;;;7.73;43.18;98673.63;5073145;27;45646;-80
2021/04/09 08:07:56;;;;;;;9.88;5.38;;;;;;;7.67;40.00;98671.50;5074815;28;46551;-79
2021/04/09 08:10:32;;;;;;;15.25;8.63;;;;;;;7.98;44.37;98666.28;5073572;27;45507;-79
2021/04/09 08:13:01;;;;;;;6.68;4.00;;;;;;;7.98;42.57;98680.38;5067491;28;45392;-79
2021/04/09 08:15:33;;;;;;;6.65;4.05;;;;;;;8.12;44.81;98668.59;5067746;28;45541;-82
2021/04/09 08:18:01;;;;;;;6.78;3.30;;;;;;;8.29;43.63;98672.47;5072333;27;47918;-80
2021/04/09 08:20:29;;;;;;;5.50;3.13;;;;;;;8.80;42.34;98677.88;5076278;27;45504;-80
2021/04/09 08:22:59;;;;;;;6.38;3.30;;;;;;;9.46;42.22;98675.69;5081661;27;45451;-79
2021/04/09 08:25:25;;;;;;;6.97;3.00;;;;;;;10.25;39.46;98673.78;5066171;27;46503;-78
2021/04/09 08:27:51;;;;;;;5.30;2.85;;;;;;;10.62;40.38;98672.16;5085166;27;45947;-80
2021/04/09 08:30:17;;;;;;;21.77;11.70;;;;;;;10.62;36.72;98667.72;5067711;27;45464;-80
2021/04/09 08:32:44;;;;;;;33.15;17.73;;;;;;;11.83;32.04;98665.78;5069894;27;45472;-81
2021/04/09 08:35:11;;;;;;;16.48;9.15;;;;;;;13.26;30.76;98661.94;5078960;27;45159;-82
2021/04/09 08:37:36;;;;;;;10.50;5.78;;;;;;;12.60;33.49;98648.34;5070179;27;48366;-82
2021/04/09 08:40:03;;;;;;;12.27;7.22;;;;;;;11.97;35.66;98638.63;5079457;27;45481;-82
2021/04/09 08:42:29;;;;;;;11.10;8.02;;;;;;;14.15;35.21;98656.00;5091452;27;45332;-81
2021/04/09 08:45:00;;;;;;;8.13;4.60;;;;;;;16.46;29.94;98651.19;5078720;27;45571;-80
2021/04/09 08:47:27;;;;;;;7.55;3.13;;;;;;;17.79;29.25;98641.41;5079521;27;46497;-80
2021/04/09 08:49:53;;;;;;;8.23;3.15;;;;;;;18.32;26.89;98642.84;5059830;28;45484;-81
2021/04/09 08:52:19;;;;;;;7.15;3.00;;;;;;;18.02;25.26;98632.31;5074277;27;45552;-82
2021/04/09 08:54:49;;;;;;;6.28;3.00;;;;;;;19.09;21.94;98632.94;5068264;27;45620;-81
2021/04/09 08:57:38;;;;;;;6.55;2.58;;;;;;;19.36;25.96;98632.19;5063104;27;45592;-80
2021/04/09 09:00:14;;;;;;;7.13;2.55;;;;;;;19.36;26.38;98618.72;5073288;27;45589;-79
2021/04/09 09:02:42;;;;;;;7.32;2.90;;;;;;;19.55;25.44;98625.19;5077350;27;45413;-80
2021/04/09 09:05:09;;;;;;;8.18;3.08;;;;;;;19.34;24.56;98612.69;5063592;27;45482;-78
2021/04/09 09:07:44;;;;;;;8.20;3.28;;;;;;;19.53;26.03;98614.59;5064798;27;45587;-79
2021/04/09 09:10:21;;;;;;;8.63;3.53;;;;;;;19.83;24.92;98610.66;5065686;28;45572;-80
2021/04/09 09:13:05;;;;;;;7.15;3.00;;;;;;;19.04;21.44;98602.25;5062916;28;45531;-80
2021/04/09 09:15:45;;;;;;;6.85;3.10;;;;;;;19.04;21.63;98600.38;5065791;28;45525;-81
2021/04/09 09:18:23;;;;;;;7.13;3.17;;;;;;;19.81;22.64;98600.06;5063320;28;46034;-81
2021/04/09 09:21:13;;;;;;;6.65;3.03;;;;;;;19.81;21.68;98597.38;5058616;28;45492;-82
2021/04/09 09:23:56;;;;;;;7.43;3.30;;;;;;;20.08;25.22;98593.88;5060326;28;45502;-83
2021/04/09 09:26:23;;;;;;;4.00;2.33;;;;;;;20.05;22.37;98588.88;5062090;28;45619;-82
2021/04/09 09:29:13;;;;;;;3.38;2.10;;;;;;;19.53;23.22;98598.41;5059028;28;45955;-81
2021/04/09 09:31:46;;;;;;;4.00;2.30;;;;;;;19.51;22.91;98586.19;5074661;27;45406;-81
2021/04/09 09:34:17;;;;;;;5.35;2.35;;;;;;;19.21;22.84;98586.50;5063397;27;45419;-81
2021/04/09 09:37:11;;;;;;;5.80;2.08;;;;;;;19.04;20.71;98580.69;5063105;28;45538;-82
2021/04/09 09:39:54;;;;;;;8.48;2.10;;;;;;;18.57;19.90;98565.13;5076369;27;45470;-82
2021/04/09 09:42:20;;;;;;;5.70;1.92;;;;;;;18.85;24.05;98566.91;5062733;28;45431;-81
2021/04/09 09:44:49;;;;;;;5.25;1.95;;;;;;;18.39;20.00;98562.97;5071745;28;45272;-82
2021/04/09 09:47:33;;;;;;;7.05;2.55;;;;;;;18.11;20.90;98554.94;5060318;27;45382;-81
2021/04/09 09:50:05;;;;;;;6.93;2.30;;;;;;;18.49;22.18;98558.03;5068626;28;46211;-84
2021/04/09 09:53:02;;;;;;;4.32;2.35;;;;;;;19.02;20.72;98543.16;5062723;27;45781;-82
2021/04/09 09:55:31;;;;;;;6.25;3.13;;;;;;;18.57;19.98;98537.41;5055636;28;45456;-82
2021/04/09 09:58:12;;;;;;;5.20;2.33;;;;;;;18.55;22.84;98532.19;5061126;28;46294;-82
2021/04/09 10:00:42;;;;;;;6.07;2.45;;;;;;;18.63;22.08;98533.91;5055987;28;46062;-81
2021/04/09 10:03:12;;;;;;;3.72;1.80;;;;;;;18.94;20.81;98530.66;5063668;27;45349;-82
2021/04/09 10:05:39;;;;;;;4.82;2.33;;;;;;;18.99;23.25;98532.78;5058353;28;45503;-81
2021/04/09 10:08:05;;;;;;;6.15;2.55;;;;;;;18.30;21.38;98521.09;5064292;28;45415;-79
2021/04/09 10:10:50;;;;;;;5.40;2.50;;;;;;;18.77;23.61;98510.50;5065789;27;46243;-80
2021/04/09 10:13:30;;;;;;;5.00;2.20;;;;;;;18.80;22.57;98508.25;5062233;28;45285;-84
2021/04/09 10:16:09;;;;;;;5.82;2.10;;;;;;;18.49;21.17;98496.13;5061760;28;45511;-83
2021/04/09 10:18:36;;;;;;;5.28;2.30;;;;;;;18.75;24.37;98509.88;5067974;28;45309;-81
2021/04/09 10:21:15;;;;;;;3.67;1.88;;;;;;;18.90;21.53;98497.06;5075308;28;45412;-82
2021/04/09 10:23:42;;;;;;;3.47;1.98;;;;;;;18.80;22.64;98493.94;5076124;28;45364;-82
2021/04/09 10:26:07;;;;;;;7.65;2.40;;;;;;;18.53;22.33;98492.00;5056602;28;45478;-80
2021/04/09 10:28:37;;;;;;;6.13;2.20;;;;;;;18.01;23.96;98493.41;5056705;28;45407;-83
2021/04/09 10:31:17;;;;;;;3.72;1.90;;;;;;;17.99;22.43;98477.44;5072317;28;45284;-81
2021/04/09 10:33:53;;;;;;;7.97;2.50;;;;;;;17.80;23.42;98477.13;5061416;28;45630;-79
2021/04/09 10:36:29;;;;;;;5.90;2.70;;;;;;;17.61;22.30;98459.81;5064047;28;45533;-85
2021/04/09 10:39:00;;;;;;;6.82;2.25;;;;;;;17.52;21.69;98452.94;5070787;28;45511;-82
2021/04/09 10:41:34;;;;;;;4.35;1.90;;;;;;;17.45;23.49;98460.97;5056149;28;45980;-84
2021/04/09 10:44:06;;;;;;;5.30;2.10;;;;;;;17.54;24.42;98452.75;5062137;27;45518;-83
2021/04/09 10:46:37;;;;;;;5.70;2.47;;;;;;;17.31;21.13;98437.72;5079668;27;45575;-82
2021/04/09 10:49:31;;;;;;;4.13;2.17;;;;;;;17.31;23.20;98437.72;5070980;27;45567;-82
2021/04/09 10:52:07;;;;;;;5.93;2.40;;;;;;;17.40;23.80;98438.38;5081232;27;45499;-81
2021/04/09 10:54:35;;;;;;;5.25;2.30;;;;;;;17.44;23.85;98436.97;5075308;27;45919;-83
2021/04/09 10:57:10;;;;;;;7.43;1.90;;;;;;;17.37;22.75;98431.56;5070713;27;45431;-83
2021/04/09 10:59:47;;;;;;;5.07;1.90;;;;;;;17.40;25.01;98436.53;5076674;27;45370;-82
2021/04/09 11:02:21;;;;;;;4.47;2.13;;;;;;;17.38;23.35;98425.16;5063091;27;46372;-82
2021/04/09 11:05:05;;;;;;;5.63;2.08;;;;;;;17.45;22.88;98417.97;5062238;27;45832;-82
2021/04/09 11:07:45;;;;;;;4.07;1.90;;;;;;;17.38;23.83;98418.94;5064182;28;45360;-83
2021/04/09 11:10:32;;;;;;;3.97;2.05;;;;;;;17.54;21.21;98415.94;5066443;27;45790;-84
2021/04/09 11:12:57;;;;;;;7.32;2.78;;;;;;;17.50;21.80;98411.97;5067011;27;45549;-88
2021/04/09 11:15:23;;;;;;;4.93;1.70;;;;;;;17.82;20.94;98407.00;5059687;28;45327;-84
2021/04/09 11:17:58;;;;;;;4.07;1.02;;;;;;;18.11;19.28;98401.56;5060152;28;45466;-87
2021/04/09 11:20:28;;;;;;;7.72;1.42;;;;;;;18.03;18.69;98387.25;5074085;27;45599;-82
2021/04/09 11:23:07;;;;;;;3.15;0.98;;;;;;;18.02;15.67;98384.78;5072327;27;46489;-84
2021/04/09 11:25:43;;;;;;;4.10;1.13;;;;;;;18.14;15.56;98383.16;5059389;28;45356;-82
2021/04/09 11:28:21;;;;;;;2.10;1.08;;;;;;;17.91;16.84;98389.66;5059647;28;45535;-82
2021/04/09 11:30:56;;;;;;;3.40;1.00;;;;;;;18.19;16.80;98385.25;5072975;28;45477;-88
2021/04/09 11:33:33;;;;;;;3.45;0.80;;;;;;;17.74;15.31;98377.59;5073023;27;46169;-86
2021/04/09 11:36:16;;;;;;;2.30;1.00;;;;;;;18.07;14.77;98382.31;5062295;27;45324;-83
2021/04/09 11:38:41;;;;;;;6.22;0.90;;;;;;;18.03;16.06;98381.88;5069205;28;45465;-82
2021/04/09 11:41:27;;;;;;;3.20;0.80;;;;;;;18.23;17.07;98373.06;5073572;27;45384;-86
2021/04/09 11:43:52;;;;;;;3.85;0.90;;;;;;;18.28;16.52;98369.75;5072084;28;46299;-86
2021/04/09 11:46:32;;;;;;;2.88;1.10;;;;;;;18.12;19.32;98379.03;5060048;28;45171;-86
2021/04/09 11:49:02;;;;;;;3.30;0.98;;;;;;;18.28;17.13;98375.13;5060425;28;45399;-89
2021/04/09 11:51:29;;;;;;;;;;;;;;;18.13;17.54;98383.38;5064633;27;45342;-86